sensor_id;sensor_type;location;lat;lon;timestamp;temperature;humidity
37460;DHT22;23318;50.966;5.284;2023-07-28T00:02:16;17.40;99.90
37460;DHT22;23318;50.966;5.284;2023-07-28T00:04:41;17.40;99.90
37460;DHT22;23318;50.966;5.284;2023-07-28T00:07:07;17.50;99.90
37460;DHT22;23318;50.966;5.284;2023-07-28T00:09:32;17.50;99.90
37460;DHT22;23318;50.966;5.284;2023-07-28T00:11:59;17.50;99.90
37460;DHT22;23318;50.966;5.284;2023-07-28T00:14:26;17.50;99.90
37460;DHT22;23318;50.966;5.284;2023-07-28T00:16:56;17.50;99.90
37460;DHT22;23318;50.966;5.284;2023-07-28T00:19:22;17.50;99.90
37460;DHT22;23318;50.966;5.284;2023-07-28T00:21:49;17.70;99.90
37460;DHT22;23318;50.966;5.284;2023-07-28T00:24:17;17.60;99.90
37460;DHT22;23318;50.966;5.284;2023-07-28T00:26:43;17.50;99.90
37460;DHT22;23318;50.966;5.284;2023-07-28T00:29:09;17.60;99.90
37460;DHT22;23318;50.966;5.284;2023-07-28T00:31:35;17.60;99.90
37460;DHT22;23318;50.966;5.284;2023-07-28T00:34:02;17.70;99.90
37460;DHT22;23318;50.966;5.284;2023-07-28T00:36:28;17.60;99.90
37460;DHT22;23318;50.966;5.284;2023-07-28T00:38:53;17.80;99.90
37460;DHT22;23318;50.966;5.284;2023-07-28T00:41:19;17.70;99.90
37460;DHT22;23318;50.966;5.284;2023-07-28T00:43:45;17.60;99.90
37460;DHT22;23318;50.966;5.284;2023-07-28T00:46:11;17.60;99.90
37460;DHT22;23318;50.966;5.284;2023-07-28T00:48:38;17.50;99.90
37460;DHT22;23318;50.966;5.284;2023-07-28T00:51:06;17.50;99.90
37460;DHT22;23318;50.966;5.284;2023-07-28T00:53:32;17.50;99.90
37460;DHT22;23318;50.966;5.284;2023-07-28T00:55:58;17.50;99.90
37460;DHT22;23318;50.966;5.284;2023-07-28T00:58:24;17.50;99.90
37460;DHT22;23318;50.966;5.284;2023-07-28T01:00:50;17.60;99.90
37460;DHT22;23318;50.966;5.284;2023-07-28T01:03:18;17.60;99.90
37460;DHT22;23318;50.966;5.284;2023-07-28T01:11:14;17.40;99.90
37460;DHT22;23318;50.966;5.284;2023-07-28T01:13:40;17.50;99.90
37460;DHT22;23318;50.966;5.284;2023-07-28T01:16:06;17.40;99.90
37460;DHT22;23318;50.966;5.284;2023-07-28T01:18:32;17.40;99.90
37460;DHT22;23318;50.966;5.284;2023-07-28T01:21:01;17.40;99.90
37460;DHT22;23318;50.966;5.284;2023-07-28T01:26:38;17.40;99.90
37460;DHT22;23318;50.966;5.284;2023-07-28T01:29:05;17.40;99.90
37460;DHT22;23318;50.966;5.284;2023-07-28T01:31:32;17.40;99.90
37460;DHT22;23318;50.966;5.284;2023-07-28T01:33:58;17.40;99.90
37460;DHT22;23318;50.966;5.284;2023-07-28T01:36:23;17.30;99.90
37460;DHT22;23318;50.966;5.284;2023-07-28T01:38:49;17.30;99.90
37460;DHT22;23318;50.966;5.284;2023-07-28T01:41:15;17.30;99.90
37460;DHT22;23318;50.966;5.284;2023-07-28T01:43:40;17.30;99.90
37460;DHT22;23318;50.966;5.284;2023-07-28T01:46:07;17.40;99.90
37460;DHT22;23318;50.966;5.284;2023-07-28T01:48:33;17.30;99.90
37460;DHT22;23318;50.966;5.284;2023-07-28T01:50:59;17.40;99.90
37460;DHT22;23318;50.966;5.284;2023-07-28T01:53:24;17.50;99.90
37460;DHT22;23318;50.966;5.284;2023-07-28T01:55:50;17.40;99.90
37460;DHT22;23318;50.966;5.284;2023-07-28T01:58:16;17.30;99.90
37460;DHT22;23318;50.966;5.284;2023-07-28T02:00:41;17.30;99.90
37460;DHT22;23318;50.966;5.284;2023-07-28T02:03:07;17.30;99.90
37460;DHT22;23318;50.966;5.284;2023-07-28T02:05:33;17.30;99.90
37460;DHT22;23318;50.966;5.284;2023-07-28T02:07:59;17.40;99.90
37460;DHT22;23318;50.966;5.284;2023-07-28T02:10:26;17.40;99.90
37460;DHT22;23318;50.966;5.284;2023-07-28T02:12:52;17.40;99.90
37460;DHT22;23318;50.966;5.284;2023-07-28T02:15:18;17.30;99.90
37460;DHT22;23318;50.966;5.284;2023-07-28T02:17:44;17.30;99.90
37460;DHT22;23318;50.966;5.284;2023-07-28T02:20:09;17.40;99.90
37460;DHT22;23318;50.966;5.284;2023-07-28T02:22:38;17.40;99.90
37460;DHT22;23318;50.966;5.284;2023-07-28T02:25:04;17.40;99.90
37460;DHT22;23318;50.966;5.284;2023-07-28T02:27:30;17.50;99.90
37460;DHT22;23318;50.966;5.284;2023-07-28T02:29:56;17.60;99.90
37460;DHT22;23318;50.966;5.284;2023-07-28T02:32:22;17.50;99.90
37460;DHT22;23318;50.966;5.284;2023-07-28T02:34:47;17.50;99.90
37460;DHT22;23318;50.966;5.284;2023-07-28T02:37:14;17.40;99.90
37460;DHT22;23318;50.966;5.284;2023-07-28T02:39:41;17.40;99.90
37460;DHT22;23318;50.966;5.284;2023-07-28T02:42:06;17.40;99.90
37460;DHT22;23318;50.966;5.284;2023-07-28T02:44:32;17.50;99.90
37460;DHT22;23318;50.966;5.284;2023-07-28T02:46:57;17.50;99.90
37460;DHT22;23318;50.966;5.284;2023-07-28T02:49:23;17.50;99.90
37460;DHT22;23318;50.966;5.284;2023-07-28T02:51:49;17.40;99.90
37460;DHT22;23318;50.966;5.284;2023-07-28T02:54:14;17.60;99.90
37460;DHT22;23318;50.966;5.284;2023-07-28T02:56:40;17.60;99.90
37460;DHT22;23318;50.966;5.284;2023-07-28T02:59:06;17.50;99.90
37460;DHT22;23318;50.966;5.284;2023-07-28T03:01:32;17.50;99.90
37460;DHT22;23318;50.966;5.284;2023-07-28T03:04:00;17.50;99.90
37460;DHT22;23318;50.966;5.284;2023-07-28T03:06:25;17.50;99.90
37460;DHT22;23318;50.966;5.284;2023-07-28T03:08:51;17.40;99.90
37460;DHT22;23318;50.966;5.284;2023-07-28T03:11:17;17.40;99.90
37460;DHT22;23318;50.966;5.284;2023-07-28T03:13:42;17.40;99.90
37460;DHT22;23318;50.966;5.284;2023-07-28T03:16:08;17.50;99.90
37460;DHT22;23318;50.966;5.284;2023-07-28T03:18:34;17.60;99.90
37460;DHT22;23318;50.966;5.284;2023-07-28T03:20:59;17.50;99.90
37460;DHT22;23318;50.966;5.284;2023-07-28T03:23:25;17.50;99.90
37460;DHT22;23318;50.966;5.284;2023-07-28T03:25:51;17.50;99.90
37460;DHT22;23318;50.966;5.284;2023-07-28T03:28:17;17.50;99.90
37460;DHT22;23318;50.966;5.284;2023-07-28T03:30:43;17.40;99.90
37460;DHT22;23318;50.966;5.284;2023-07-28T03:33:08;17.50;99.90
37460;DHT22;23318;50.966;5.284;2023-07-28T03:35:34;17.50;99.90
37460;DHT22;23318;50.966;5.284;2023-07-28T03:38:00;17.70;99.90
37460;DHT22;23318;50.966;5.284;2023-07-28T03:40:25;17.60;99.90
37460;DHT22;23318;50.966;5.284;2023-07-28T03:42:52;17.50;99.90
37460;DHT22;23318;50.966;5.284;2023-07-28T03:45:18;17.50;99.90
37460;DHT22;23318;50.966;5.284;2023-07-28T03:47:43;17.50;99.90
37460;DHT22;23318;50.966;5.284;2023-07-28T03:50:09;17.50;99.90
37460;DHT22;23318;50.966;5.284;2023-07-28T03:52:35;17.50;99.90
37460;DHT22;23318;50.966;5.284;2023-07-28T03:55:01;17.60;99.90
37460;DHT22;23318;50.966;5.284;2023-07-28T03:57:27;17.50;99.90
37460;DHT22;23318;50.966;5.284;2023-07-28T03:59:52;17.50;99.90
37460;DHT22;23318;50.966;5.284;2023-07-28T04:02:18;17.60;99.90
37460;DHT22;23318;50.966;5.284;2023-07-28T04:04:44;17.50;99.90
37460;DHT22;23318;50.966;5.284;2023-07-28T04:07:09;17.50;99.90
37460;DHT22;23318;50.966;5.284;2023-07-28T04:09:35;17.60;99.90
37460;DHT22;23318;50.966;5.284;2023-07-28T04:12:01;17.50;99.90
37460;DHT22;23318;50.966;5.284;2023-07-28T04:14:26;17.60;99.90
37460;DHT22;23318;50.966;5.284;2023-07-28T04:16:52;17.60;99.90
37460;DHT22;23318;50.966;5.284;2023-07-28T04:19:17;17.50;99.90
37460;DHT22;23318;50.966;5.284;2023-07-28T04:21:43;17.50;99.90
37460;DHT22;23318;50.966;5.284;2023-07-28T04:24:09;17.50;99.90
37460;DHT22;23318;50.966;5.284;2023-07-28T04:26:35;17.50;99.90
37460;DHT22;23318;50.966;5.284;2023-07-28T04:29:01;17.60;99.90
37460;DHT22;23318;50.966;5.284;2023-07-28T04:31:26;17.60;99.90
37460;DHT22;23318;50.966;5.284;2023-07-28T04:33:52;17.60;99.90
37460;DHT22;23318;50.966;5.284;2023-07-28T04:36:18;17.60;99.90
37460;DHT22;23318;50.966;5.284;2023-07-28T04:38:44;17.60;99.90
37460;DHT22;23318;50.966;5.284;2023-07-28T04:41:09;17.60;99.90
37460;DHT22;23318;50.966;5.284;2023-07-28T04:43:35;17.60;99.90
37460;DHT22;23318;50.966;5.284;2023-07-28T04:46:00;17.70;99.90
37460;DHT22;23318;50.966;5.284;2023-07-28T04:48:27;17.60;99.90
37460;DHT22;23318;50.966;5.284;2023-07-28T04:50:53;17.60;99.90
37460;DHT22;23318;50.966;5.284;2023-07-28T04:53:19;17.60;99.90
37460;DHT22;23318;50.966;5.284;2023-07-28T04:55:45;17.60;99.90
37460;DHT22;23318;50.966;5.284;2023-07-28T04:58:11;17.60;99.90
37460;DHT22;23318;50.966;5.284;2023-07-28T05:00:36;17.60;99.90
37460;DHT22;23318;50.966;5.284;2023-07-28T05:03:02;17.70;99.90
37460;DHT22;23318;50.966;5.284;2023-07-28T05:05:29;17.60;99.90
37460;DHT22;23318;50.966;5.284;2023-07-28T05:07:55;17.70;99.90
37460;DHT22;23318;50.966;5.284;2023-07-28T05:10:20;17.70;99.90
37460;DHT22;23318;50.966;5.284;2023-07-28T05:12:46;17.80;99.90
37460;DHT22;23318;50.966;5.284;2023-07-28T05:15:14;17.80;99.90
37460;DHT22;23318;50.966;5.284;2023-07-28T05:17:40;17.90;99.90
37460;DHT22;23318;50.966;5.284;2023-07-28T05:20:06;17.80;99.90
37460;DHT22;23318;50.966;5.284;2023-07-28T05:22:32;17.80;99.90
37460;DHT22;23318;50.966;5.284;2023-07-28T05:24:58;17.80;99.90
37460;DHT22;23318;50.966;5.284;2023-07-28T05:27:24;17.70;99.90
37460;DHT22;23318;50.966;5.284;2023-07-28T05:29:50;17.80;99.90
37460;DHT22;23318;50.966;5.284;2023-07-28T05:32:15;17.80;99.90
37460;DHT22;23318;50.966;5.284;2023-07-28T05:34:44;17.70;99.90
37460;DHT22;23318;50.966;5.284;2023-07-28T05:37:10;17.80;99.90
37460;DHT22;23318;50.966;5.284;2023-07-28T05:39:36;17.70;99.90
37460;DHT22;23318;50.966;5.284;2023-07-28T05:42:02;17.70;99.90
37460;DHT22;23318;50.966;5.284;2023-07-28T05:44:28;17.80;99.90
37460;DHT22;23318;50.966;5.284;2023-07-28T05:46:54;17.90;99.90
37460;DHT22;23318;50.966;5.284;2023-07-28T05:49:19;17.80;99.90
37460;DHT22;23318;50.966;5.284;2023-07-28T05:51:45;17.80;99.90
37460;DHT22;23318;50.966;5.284;2023-07-28T05:54:12;17.90;99.90
37460;DHT22;23318;50.966;5.284;2023-07-28T05:56:41;17.90;99.90
37460;DHT22;23318;50.966;5.284;2023-07-28T05:59:07;17.90;99.90
37460;DHT22;23318;50.966;5.284;2023-07-28T06:01:33;17.90;99.90
37460;DHT22;23318;50.966;5.284;2023-07-28T06:03:59;18.00;99.90
37460;DHT22;23318;50.966;5.284;2023-07-28T06:06:27;18.00;99.90
37460;DHT22;23318;50.966;5.284;2023-07-28T06:08:54;18.00;99.90
37460;DHT22;23318;50.966;5.284;2023-07-28T06:11:20;18.00;99.90
37460;DHT22;23318;50.966;5.284;2023-07-28T06:13:46;18.10;99.90
37460;DHT22;23318;50.966;5.284;2023-07-28T06:16:15;18.20;99.90
37460;DHT22;23318;50.966;5.284;2023-07-28T06:18:41;18.10;99.90
37460;DHT22;23318;50.966;5.284;2023-07-28T06:21:06;18.30;99.90
37460;DHT22;23318;50.966;5.284;2023-07-28T06:23:32;18.30;99.90
37460;DHT22;23318;50.966;5.284;2023-07-28T06:25:58;18.30;99.90
37460;DHT22;23318;50.966;5.284;2023-07-28T06:28:23;18.30;99.90
37460;DHT22;23318;50.966;5.284;2023-07-28T06:30:56;18.30;99.90
37460;DHT22;23318;50.966;5.284;2023-07-28T06:33:23;18.30;99.90
37460;DHT22;23318;50.966;5.284;2023-07-28T06:35:49;18.30;99.90
37460;DHT22;23318;50.966;5.284;2023-07-28T06:38:15;18.40;99.90
37460;DHT22;23318;50.966;5.284;2023-07-28T06:40:40;18.30;99.90
37460;DHT22;23318;50.966;5.284;2023-07-28T06:43:06;18.40;99.90
37460;DHT22;23318;50.966;5.284;2023-07-28T06:45:33;18.60;99.90
37460;DHT22;23318;50.966;5.284;2023-07-28T06:47:58;18.60;99.90
37460;DHT22;23318;50.966;5.284;2023-07-28T06:50:24;18.80;99.90
37460;DHT22;23318;50.966;5.284;2023-07-28T06:52:50;18.70;99.90
37460;DHT22;23318;50.966;5.284;2023-07-28T06:55:18;18.70;99.90
37460;DHT22;23318;50.966;5.284;2023-07-28T06:57:47;18.90;99.90
37460;DHT22;23318;50.966;5.284;2023-07-28T07:00:13;18.90;99.90
37460;DHT22;23318;50.966;5.284;2023-07-28T07:02:40;18.90;99.90
37460;DHT22;23318;50.966;5.284;2023-07-28T07:05:06;18.70;99.90
37460;DHT22;23318;50.966;5.284;2023-07-28T07:07:32;18.70;99.90
37460;DHT22;23318;50.966;5.284;2023-07-28T07:09:58;18.80;99.90
37460;DHT22;23318;50.966;5.284;2023-07-28T07:12:23;18.90;99.90
37460;DHT22;23318;50.966;5.284;2023-07-28T07:14:49;19.10;99.90
37460;DHT22;23318;50.966;5.284;2023-07-28T07:17:15;19.30;99.90
37460;DHT22;23318;50.966;5.284;2023-07-28T07:19:40;19.30;99.90
37460;DHT22;23318;50.966;5.284;2023-07-28T07:22:06;19.20;99.90
37460;DHT22;23318;50.966;5.284;2023-07-28T07:24:32;19.30;99.90
37460;DHT22;23318;50.966;5.284;2023-07-28T07:26:58;19.70;99.90
37460;DHT22;23318;50.966;5.284;2023-07-28T07:29:24;19.80;99.90
37460;DHT22;23318;50.966;5.284;2023-07-28T07:31:50;19.70;99.90
37460;DHT22;23318;50.966;5.284;2023-07-28T07:34:20;19.30;99.90
37460;DHT22;23318;50.966;5.284;2023-07-28T07:36:46;19.10;99.90
37460;DHT22;23318;50.966;5.284;2023-07-28T07:39:12;19.10;99.90
37460;DHT22;23318;50.966;5.284;2023-07-28T07:41:37;19.20;99.90
37460;DHT22;23318;50.966;5.284;2023-07-28T07:44:03;19.10;99.90
37460;DHT22;23318;50.966;5.284;2023-07-28T07:46:30;19.00;99.90
37460;DHT22;23318;50.966;5.284;2023-07-28T07:48:55;19.30;99.90
37460;DHT22;23318;50.966;5.284;2023-07-28T07:51:21;19.60;99.90
37460;DHT22;23318;50.966;5.284;2023-07-28T07:53:47;19.70;99.90
37460;DHT22;23318;50.966;5.284;2023-07-28T07:56:12;19.90;99.90
37460;DHT22;23318;50.966;5.284;2023-07-28T07:58:38;20.10;99.90
37460;DHT22;23318;50.966;5.284;2023-07-28T08:01:04;20.10;99.90
37460;DHT22;23318;50.966;5.284;2023-07-28T08:03:30;20.40;99.90
37460;DHT22;23318;50.966;5.284;2023-07-28T08:05:57;20.70;99.90
37460;DHT22;23318;50.966;5.284;2023-07-28T08:08:23;20.40;99.90
37460;DHT22;23318;50.966;5.284;2023-07-28T08:10:52;20.20;99.90
37460;DHT22;23318;50.966;5.284;2023-07-28T08:13:18;20.00;99.90
37460;DHT22;23318;50.966;5.284;2023-07-28T08:15:44;20.10;99.90
37460;DHT22;23318;50.966;5.284;2023-07-28T08:18:11;20.10;99.90
37460;DHT22;23318;50.966;5.284;2023-07-28T08:20:37;20.00;99.90
37460;DHT22;23318;50.966;5.284;2023-07-28T08:23:03;20.00;99.90
37460;DHT22;23318;50.966;5.284;2023-07-28T08:25:29;19.90;99.90
37460;DHT22;23318;50.966;5.284;2023-07-28T08:27:54;20.20;99.90
37460;DHT22;23318;50.966;5.284;2023-07-28T08:30:20;20.00;99.90
37460;DHT22;23318;50.966;5.284;2023-07-28T08:32:46;19.90;99.90
37460;DHT22;23318;50.966;5.284;2023-07-28T08:35:12;20.00;99.90
37460;DHT22;23318;50.966;5.284;2023-07-28T08:37:37;20.00;99.90
37460;DHT22;23318;50.966;5.284;2023-07-28T08:40:03;19.80;99.90
37460;DHT22;23318;50.966;5.284;2023-07-28T08:42:33;19.60;99.90
37460;DHT22;23318;50.966;5.284;2023-07-28T08:45:01;19.60;99.90
37460;DHT22;23318;50.966;5.284;2023-07-28T08:47:27;19.60;99.90
37460;DHT22;23318;50.966;5.284;2023-07-28T08:49:52;19.60;99.90
37460;DHT22;23318;50.966;5.284;2023-07-28T08:52:19;19.80;99.90
37460;DHT22;23318;50.966;5.284;2023-07-28T08:54:45;19.90;99.90
37460;DHT22;23318;50.966;5.284;2023-07-28T08:57:11;19.70;99.90
37460;DHT22;23318;50.966;5.284;2023-07-28T08:59:37;19.20;99.90
37460;DHT22;23318;50.966;5.284;2023-07-28T09:02:09;19.00;99.90
37460;DHT22;23318;50.966;5.284;2023-07-28T09:04:35;18.90;99.90
37460;DHT22;23318;50.966;5.284;2023-07-28T09:07:04;18.70;99.90
37460;DHT22;23318;50.966;5.284;2023-07-28T09:09:32;18.60;99.90
37460;DHT22;23318;50.966;5.284;2023-07-28T09:12:00;18.80;99.90
37460;DHT22;23318;50.966;5.284;2023-07-28T09:14:26;18.80;99.90
37460;DHT22;23318;50.966;5.284;2023-07-28T09:16:52;18.80;99.90
37460;DHT22;23318;50.966;5.284;2023-07-28T09:19:20;18.90;99.90
37460;DHT22;23318;50.966;5.284;2023-07-28T09:21:58;19.10;99.90
37460;DHT22;23318;50.966;5.284;2023-07-28T09:24:30;19.20;99.90
37460;DHT22;23318;50.966;5.284;2023-07-28T09:26:58;19.20;99.90
37460;DHT22;23318;50.966;5.284;2023-07-28T09:29:24;19.40;99.90
37460;DHT22;23318;50.966;5.284;2023-07-28T09:31:52;19.70;99.90
37460;DHT22;23318;50.966;5.284;2023-07-28T09:34:25;19.90;99.90
37460;DHT22;23318;50.966;5.284;2023-07-28T09:36:54;20.20;99.90
37460;DHT22;23318;50.966;5.284;2023-07-28T09:39:21;20.20;99.90
37460;DHT22;23318;50.966;5.284;2023-07-28T09:41:47;20.30;99.90
37460;DHT22;23318;50.966;5.284;2023-07-28T09:44:13;20.40;99.90
37460;DHT22;23318;50.966;5.284;2023-07-28T09:46:50;20.70;99.90
37460;DHT22;23318;50.966;5.284;2023-07-28T09:49:28;20.80;99.90
37460;DHT22;23318;50.966;5.284;2023-07-28T09:51:56;20.40;99.90
37460;DHT22;23318;50.966;5.284;2023-07-28T09:54:28;20.30;99.90
37460;DHT22;23318;50.966;5.284;2023-07-28T09:56:59;20.60;99.90
37460;DHT22;23318;50.966;5.284;2023-07-28T09:59:41;20.50;99.90
37460;DHT22;23318;50.966;5.284;2023-07-28T10:02:07;20.50;99.90
37460;DHT22;23318;50.966;5.284;2023-07-28T10:04:34;20.30;99.90
37460;DHT22;23318;50.966;5.284;2023-07-28T10:07:01;20.20;99.90
37460;DHT22;23318;50.966;5.284;2023-07-28T10:09:28;20.40;99.90
37460;DHT22;23318;50.966;5.284;2023-07-28T10:11:56;20.30;99.90
37460;DHT22;23318;50.966;5.284;2023-07-28T10:14:36;20.20;99.90
37460;DHT22;23318;50.966;5.284;2023-07-28T10:17:05;20.50;99.90
37460;DHT22;23318;50.966;5.284;2023-07-28T10:19:35;20.50;99.90
37460;DHT22;23318;50.966;5.284;2023-07-28T10:22:08;20.40;99.90
37460;DHT22;23318;50.966;5.284;2023-07-28T10:30:00;20.90;99.90
37460;DHT22;23318;50.966;5.284;2023-07-28T10:32:29;20.90;99.90
37460;DHT22;23318;50.966;5.284;2023-07-28T10:35:03;21.30;99.90
37460;DHT22;23318;50.966;5.284;2023-07-28T10:37:31;22.00;99.90
37460;DHT22;23318;50.966;5.284;2023-07-28T10:42:48;22.20;99.90
37460;DHT22;23318;50.966;5.284;2023-07-28T10:45:13;21.60;99.90
37460;DHT22;23318;50.966;5.284;2023-07-28T10:47:41;21.50;99.90
37460;DHT22;23318;50.966;5.284;2023-07-28T10:50:10;21.60;99.90
37460;DHT22;23318;50.966;5.284;2023-07-28T10:52:40;22.10;99.90
37460;DHT22;23318;50.966;5.284;2023-07-28T10:55:18;21.70;99.90
37460;DHT22;23318;50.966;5.284;2023-07-28T10:57:46;21.50;99.90
37460;DHT22;23318;50.966;5.284;2023-07-28T11:00:14;21.40;99.90
37460;DHT22;23318;50.966;5.284;2023-07-28T11:02:47;21.50;99.90
37460;DHT22;23318;50.966;5.284;2023-07-28T11:05:19;21.50;99.90
37460;DHT22;23318;50.966;5.284;2023-07-28T11:07:46;21.30;99.90
37460;DHT22;23318;50.966;5.284;2023-07-28T11:10:15;21.30;99.90
37460;DHT22;23318;50.966;5.284;2023-07-28T11:12:46;21.20;99.90
37460;DHT22;23318;50.966;5.284;2023-07-28T11:15:14;21.00;99.90
37460;DHT22;23318;50.966;5.284;2023-07-28T11:17:41;20.90;99.90
37460;DHT22;23318;50.966;5.284;2023-07-28T11:20:17;20.60;99.90
37460;DHT22;23318;50.966;5.284;2023-07-28T11:22:44;20.80;99.90
37460;DHT22;23318;50.966;5.284;2023-07-28T11:25:10;21.30;99.90
37460;DHT22;23318;50.966;5.284;2023-07-28T11:27:37;22.10;99.90
37460;DHT22;23318;50.966;5.284;2023-07-28T11:30:04;22.60;99.90
37460;DHT22;23318;50.966;5.284;2023-07-28T11:32:37;22.10;99.90
37460;DHT22;23318;50.966;5.284;2023-07-28T11:35:07;21.70;99.90
37460;DHT22;23318;50.966;5.284;2023-07-28T11:37:34;21.10;99.90
37460;DHT22;23318;50.966;5.284;2023-07-28T11:40:05;21.10;99.90
37460;DHT22;23318;50.966;5.284;2023-07-28T11:42:37;21.00;99.90
37460;DHT22;23318;50.966;5.284;2023-07-28T11:45:04;21.20;99.90
37460;DHT22;23318;50.966;5.284;2023-07-28T11:47:30;21.00;99.90
37460;DHT22;23318;50.966;5.284;2023-07-28T11:49:56;20.90;99.90
37460;DHT22;23318;50.966;5.284;2023-07-28T11:52:24;20.90;99.90
37460;DHT22;23318;50.966;5.284;2023-07-28T11:54:51;20.60;99.90
37460;DHT22;23318;50.966;5.284;2023-07-28T11:57:18;20.60;99.90
37460;DHT22;23318;50.966;5.284;2023-07-28T11:59:44;21.00;99.90
37460;DHT22;23318;50.966;5.284;2023-07-28T12:02:10;21.40;99.90
37460;DHT22;23318;50.966;5.284;2023-07-28T12:04:37;22.10;99.90
37460;DHT22;23318;50.966;5.284;2023-07-28T12:07:15;22.40;99.90
37460;DHT22;23318;50.966;5.284;2023-07-28T12:12:29;22.00;99.90
37460;DHT22;23318;50.966;5.284;2023-07-28T12:14:56;21.50;99.90
37460;DHT22;23318;50.966;5.284;2023-07-28T12:17:24;21.40;99.90
37460;DHT22;23318;50.966;5.284;2023-07-28T12:20:02;21.30;99.90
37460;DHT22;23318;50.966;5.284;2023-07-28T12:22:41;21.20;99.90
37460;DHT22;23318;50.966;5.284;2023-07-28T12:25:08;21.10;99.90
37460;DHT22;23318;50.966;5.284;2023-07-28T12:27:35;21.30;99.90
37460;DHT22;23318;50.966;5.284;2023-07-28T12:30:02;21.60;99.90
37460;DHT22;23318;50.966;5.284;2023-07-28T12:32:28;21.30;99.90
37460;DHT22;23318;50.966;5.284;2023-07-28T12:34:54;21.60;99.90
37460;DHT22;23318;50.966;5.284;2023-07-28T12:37:20;21.60;99.90
37460;DHT22;23318;50.966;5.284;2023-07-28T12:39:47;21.80;99.90
37460;DHT22;23318;50.966;5.284;2023-07-28T12:42:14;22.30;99.90
37460;DHT22;23318;50.966;5.284;2023-07-28T12:44:41;22.60;99.90
37460;DHT22;23318;50.966;5.284;2023-07-28T12:47:07;22.50;99.90
37460;DHT22;23318;50.966;5.284;2023-07-28T12:49:33;22.50;99.90
37460;DHT22;23318;50.966;5.284;2023-07-28T12:52:01;22.00;99.90
37460;DHT22;23318;50.966;5.284;2023-07-28T12:54:27;21.70;99.90
37460;DHT22;23318;50.966;5.284;2023-07-28T12:56:55;22.10;99.90
37460;DHT22;23318;50.966;5.284;2023-07-28T12:59:21;22.40;99.90
37460;DHT22;23318;50.966;5.284;2023-07-28T13:01:47;22.70;99.90
37460;DHT22;23318;50.966;5.284;2023-07-28T13:04:13;22.90;99.90
37460;DHT22;23318;50.966;5.284;2023-07-28T13:06:39;22.60;99.90
37460;DHT22;23318;50.966;5.284;2023-07-28T13:09:06;22.90;99.90
37460;DHT22;23318;50.966;5.284;2023-07-28T13:11:33;23.20;99.90
37460;DHT22;23318;50.966;5.284;2023-07-28T13:13:59;23.20;99.90
37460;DHT22;23318;50.966;5.284;2023-07-28T13:16:24;23.00;99.90
37460;DHT22;23318;50.966;5.284;2023-07-28T13:18:50;22.50;99.90
37460;DHT22;23318;50.966;5.284;2023-07-28T13:21:16;22.40;99.90
37460;DHT22;23318;50.966;5.284;2023-07-28T13:23:41;22.40;99.90
37460;DHT22;23318;50.966;5.284;2023-07-28T13:26:07;22.40;99.90
37460;DHT22;23318;50.966;5.284;2023-07-28T13:28:33;22.60;99.90
37460;DHT22;23318;50.966;5.284;2023-07-28T13:31:01;22.60;99.90
37460;DHT22;23318;50.966;5.284;2023-07-28T13:33:27;22.60;99.90
37460;DHT22;23318;50.966;5.284;2023-07-28T13:35:52;22.80;99.90
37460;DHT22;23318;50.966;5.284;2023-07-28T13:38:18;22.90;99.90
37460;DHT22;23318;50.966;5.284;2023-07-28T13:40:44;23.10;99.90
37460;DHT22;23318;50.966;5.284;2023-07-28T13:43:10;23.40;99.90
37460;DHT22;23318;50.966;5.284;2023-07-28T13:45:35;23.70;99.90
37460;DHT22;23318;50.966;5.284;2023-07-28T13:48:01;24.10;99.90
37460;DHT22;23318;50.966;5.284;2023-07-28T13:50:26;25.60;99.90
37460;DHT22;23318;50.966;5.284;2023-07-28T13:52:52;26.10;99.90
37460;DHT22;23318;50.966;5.284;2023-07-28T13:55:18;25.40;99.90
37460;DHT22;23318;50.966;5.284;2023-07-28T13:57:43;26.20;99.90
37460;DHT22;23318;50.966;5.284;2023-07-28T14:00:10;28.30;99.90
37460;DHT22;23318;50.966;5.284;2023-07-28T14:02:36;29.40;99.90
37460;DHT22;23318;50.966;5.284;2023-07-28T14:05:03;29.20;99.90
37460;DHT22;23318;50.966;5.284;2023-07-28T14:07:29;30.20;99.90
37460;DHT22;23318;50.966;5.284;2023-07-28T14:09:55;29.90;99.90
37460;DHT22;23318;50.966;5.284;2023-07-28T14:12:20;26.70;99.90
37460;DHT22;23318;50.966;5.284;2023-07-28T14:14:46;26.70;99.90
37460;DHT22;23318;50.966;5.284;2023-07-28T14:17:12;26.10;99.90
37460;DHT22;23318;50.966;5.284;2023-07-28T14:19:39;25.00;99.90
37460;DHT22;23318;50.966;5.284;2023-07-28T14:22:05;24.20;99.90
37460;DHT22;23318;50.966;5.284;2023-07-28T14:24:31;24.50;99.90
37460;DHT22;23318;50.966;5.284;2023-07-28T14:26:57;24.60;99.90
37460;DHT22;23318;50.966;5.284;2023-07-28T14:29:22;24.60;99.90
37460;DHT22;23318;50.966;5.284;2023-07-28T14:31:48;24.30;99.90
37460;DHT22;23318;50.966;5.284;2023-07-28T14:34:14;25.10;99.90
37460;DHT22;23318;50.966;5.284;2023-07-28T14:36:40;26.40;99.90
37460;DHT22;23318;50.966;5.284;2023-07-28T14:39:06;28.60;99.90
37460;DHT22;23318;50.966;5.284;2023-07-28T14:41:32;28.20;99.90
37460;DHT22;23318;50.966;5.284;2023-07-28T14:43:57;28.60;99.90
37460;DHT22;23318;50.966;5.284;2023-07-28T14:46:23;27.60;99.90
37460;DHT22;23318;50.966;5.284;2023-07-28T14:48:50;26.20;99.90
37460;DHT22;23318;50.966;5.284;2023-07-28T14:51:17;25.30;99.90
37460;DHT22;23318;50.966;5.284;2023-07-28T14:53:43;24.80;99.90
37460;DHT22;23318;50.966;5.284;2023-07-28T14:56:11;25.50;99.90
37460;DHT22;23318;50.966;5.284;2023-07-28T14:58:37;26.60;99.90
37460;DHT22;23318;50.966;5.284;2023-07-28T15:01:03;28.10;99.90
37460;DHT22;23318;50.966;5.284;2023-07-28T15:03:30;28.40;99.90
37460;DHT22;23318;50.966;5.284;2023-07-28T15:05:57;30.30;99.80
37460;DHT22;23318;50.966;5.284;2023-07-28T15:08:23;30.10;99.70
37460;DHT22;23318;50.966;5.284;2023-07-28T15:10:48;29.90;99.50
37460;DHT22;23318;50.966;5.284;2023-07-28T15:13:14;29.60;99.00
37460;DHT22;23318;50.966;5.284;2023-07-28T15:15:39;28.80;99.80
37460;DHT22;23318;50.966;5.284;2023-07-28T15:18:05;28.30;99.80
37460;DHT22;23318;50.966;5.284;2023-07-28T15:20:33;26.60;99.90
37460;DHT22;23318;50.966;5.284;2023-07-28T15:22:59;25.60;99.90
37460;DHT22;23318;50.966;5.284;2023-07-28T15:25:25;25.60;99.90
37460;DHT22;23318;50.966;5.284;2023-07-28T15:27:51;25.70;99.90
37460;DHT22;23318;50.966;5.284;2023-07-28T15:30:17;25.20;99.90
37460;DHT22;23318;50.966;5.284;2023-07-28T15:32:43;25.20;99.90
37460;DHT22;23318;50.966;5.284;2023-07-28T15:35:09;25.70;99.90
37460;DHT22;23318;50.966;5.284;2023-07-28T15:37:36;27.80;99.90
37460;DHT22;23318;50.966;5.284;2023-07-28T15:40:02;28.40;99.50
37460;DHT22;23318;50.966;5.284;2023-07-28T15:42:28;29.30;99.40
37460;DHT22;23318;50.966;5.284;2023-07-28T15:44:53;28.80;98.70
37460;DHT22;23318;50.966;5.284;2023-07-28T15:47:19;27.50;99.30